Time;durP1;ratioP1;P1;durP2;ratioP2;P2;SDS_P1;SDS_P2;PMS_P1;PMS_P2;Temp;Humidity;BMP_temperature;BMP_pressure;BME280_temperature;BME280_humidity;BME280_pressure;Samples;Min_cycle;Max_cycle;Signal;HPM_P1;HPM_P2
2021/03/16 00:05:34;;;;;;;107.15;53.63;;;;;;;2.99;58.17;98213.43;251864;1153;114873;-72
2021/03/16 00:10:36;;;;;;;110.05;56.23;;;;;;;2.97;58.51;98220.52;250512;1153;115160;-76
2021/03/16 00:15:39;;;;;;;102.93;54.07;;;;;;;2.97;58.52;98217.88;251898;1147;114801;-73
2021/03/16 00:20:43;;;;;;;93.17;48.93;;;;;;;2.93;58.42;98223.36;252042;1153;115645;-73
2021/03/16 00:25:47;;;;;;;99.07;50.63;;;;;;;2.88;58.63;98223.54;252012;1146;115318;-73
2021/03/16 00:30:49;;;;;;;92.68;48.90;;;;;;;2.85;58.80;98231.55;251922;1153;114719;-73
2021/03/16 00:35:52;;;;;;;95.00;49.15;;;;;;;2.83;58.75;98231.63;251676;1146;114701;-74
2021/03/16 00:40:55;;;;;;;87.53;50.17;;;;;;;2.83;58.78;98231.63;251877;1153;114640;-74
2021/03/16 00:45:59;;;;;;;88.17;45.20;;;;;;;2.86;59.44;98235.91;251702;1148;114825;-73
2021/03/16 00:51:02;;;;;;;81.10;44.30;;;;;;;2.96;59.24;98228.48;251924;1153;115000;-74
2021/03/16 00:56:05;;;;;;;90.65;44.60;;;;;;;3.00;59.09;98232.67;251861;1146;114683;-74
2021/03/16 01:01:08;;;;;;;87.57;46.87;;;;;;;3.04;59.09;98227.20;251934;1153;115374;-75
2021/03/16 01:06:11;;;;;;;81.70;40.98;;;;;;;3.06;59.27;98228.00;251856;1146;114723;-74
2021/03/16 01:11:14;;;;;;;72.65;38.95;;;;;;;3.09;59.12;98226.98;252006;1153;114833;-74
2021/03/16 01:16:16;;;;;;;80.03;41.43;;;;;;;3.10;59.06;98225.23;251834;1146;114962;-74
2021/03/16 01:21:19;;;;;;;79.40;40.30;;;;;;;3.11;58.94;98224.30;251976;1152;115042;-73
2021/03/16 01:26:22;;;;;;;86.70;42.45;;;;;;;3.10;59.13;98217.34;251903;1147;115024;-73
2021/03/16 01:31:24;;;;;;;88.93;44.40;;;;;;;3.10;58.92;98217.34;251937;1153;115016;-73
2021/03/16 01:36:27;;;;;;;80.75;42.15;;;;;;;3.10;58.95;98210.31;251947;1146;114958;-73
2021/03/16 01:41:30;;;;;;;86.58;42.70;;;;;;;3.12;58.85;98204.97;251877;1153;115589;-73
2021/03/16 01:46:33;;;;;;;80.75;41.40;;;;;;;3.08;58.58;98212.14;251844;1146;115767;-73
2021/03/16 01:51:37;;;;;;;72.75;38.23;;;;;;;3.06;59.01;98208.75;251937;1153;114827;-72
2021/03/16 01:56:41;;;;;;;74.85;37.85;;;;;;;3.06;59.06;98204.34;251299;1147;114695;-74
2021/03/16 02:02:04;;;;;;;76.67;38.90;;;;;;;3.11;59.16;98213.78;251942;1153;115071;-75
2021/03/16 02:07:31;;;;;;;75.45;37.28;;;;;;;3.13;59.08;98210.17;251919;1145;114849;-75
2021/03/16 02:13:16;;;;;;;74.25;37.65;;;;;;;3.13;59.03;98209.33;251748;1153;115934;-74
2021/03/16 02:18:44;;;;;;;85.87;41.67;;;;;;;3.10;59.14;98214.72;251966;1153;118065;-76
2021/03/16 02:24:05;;;;;;;81.00;39.80;;;;;;;3.06;58.98;98212.23;251646;1146;115225;-76
2021/03/16 02:29:46;;;;;;;84.88;40.80;;;;;;;3.01;59.02;98213.34;251923;1153;115070;-75
2021/03/16 02:35:11;;;;;;;78.43;39.85;;;;;;;2.94;58.91;98218.02;251926;1146;114837;-75
2021/03/16 02:40:34;;;;;;;80.80;40.70;;;;;;;2.89;59.08;98227.02;251930;1153;114834;-75
2021/03/16 02:45:56;;;;;;;80.70;43.18;;;;;;;2.83;59.04;98228.16;251896;1145;114719;-76
2021/03/16 02:51:18;;;;;;;98.45;49.75;;;;;;;2.76;58.96;98232.83;251935;1146;114799;-75
2021/03/16 02:56:41;;;;;;;103.83;50.45;;;;;;;2.69;59.28;98228.77;251930;1145;115196;-75
2021/03/16 03:02:03;;;;;;;99.55;52.35;;;;;;;2.64;59.47;98238.59;251935;1153;115057;-75
2021/03/16 03:07:24;;;;;;;108.25;53.80;;;;;;;2.65;59.58;98235.08;251736;1146;114785;-76
2021/03/16 03:12:45;;;;;;;102.78;52.33;;;;;;;2.64;59.38;98243.85;251924;1153;114796;-74
2021/03/16 03:18:07;;;;;;;103.48;51.18;;;;;;;2.66;59.75;98238.55;251891;1146;114941;-75
2021/03/16 03:23:32;;;;;;;101.45;49.63;;;;;;;2.65;59.62;98239.45;251994;1153;115205;-75
2021/03/16 03:28:54;;;;;;;111.88;51.25;;;;;;;2.64;59.54;98253.51;250713;1153;115207;-74
2021/03/16 03:34:18;;;;;;;97.05;46.00;;;;;;;2.61;59.37;98246.61;250374;1153;115050;-75
2021/03/16 03:39:39;;;;;;;97.73;47.90;;;;;;;2.58;59.38;98244.11;252020;1146;115340;-75
2021/03/16 03:45:04;;;;;;;96.40;47.98;;;;;;;2.54;59.39;98246.02;251917;1153;115254;-75
2021/03/16 03:50:26;;;;;;;96.43;45.43;;;;;;;2.52;59.38;98245.24;251896;1146;115002;-75
2021/03/16 03:55:48;;;;;;;95.30;46.20;;;;;;;2.51;59.85;98251.39;251981;1146;115139;-75
2021/03/16 04:01:09;;;;;;;87.27;44.10;;;;;;;2.52;59.65;98254.90;251991;1153;114854;-76
2021/03/16 04:06:32;;;;;;;90.05;44.78;;;;;;;2.50;59.53;98259.34;251106;1152;114780;-76
2021/03/16 04:11:54;;;;;;;82.68;42.45;;;;;;;2.42;59.91;98270.17;251758;1146;114689;-76
2021/03/16 04:17:15;;;;;;;91.83;45.38;;;;;;;2.37;59.72;98269.50;251960;1146;114977;-76
2021/03/16 04:22:37;;;;;;;99.55;51.10;;;;;;;2.43;59.80;98271.03;251930;1153;114922;-77
2021/03/16 04:27:58;;;;;;;100.77;48.50;;;;;;;2.43;59.96;98277.13;251953;1146;115798;-77
2021/03/16 04:33:19;;;;;;;105.93;50.57;;;;;;;2.44;59.76;98278.83;251961;1146;114992;-77
2021/03/16 04:38:40;;;;;;;117.33;53.47;;;;;;;2.47;59.84;98283.11;251931;1146;115304;-76
2021/03/16 04:44:01;;;;;;;106.10;51.30;;;;;;;2.42;59.67;98285.94;252045;1153;114824;-77
2021/03/16 04:49:22;;;;;;;98.63;49.30;;;;;;;2.38;59.56;98294.86;251936;1146;115502;-75
2021/03/16 04:54:43;;;;;;;98.40;48.23;;;;;;;2.36;59.82;98281.78;251944;1153;114843;-75
2021/03/16 05:00:05;;;;;;;100.40;48.93;;;;;;;2.39;59.84;98282.58;252044;1145;114706;-75
2021/03/16 05:05:26;;;;;;;104.95;48.20;;;;;;;2.34;60.02;98282.75;250517;1147;114923;-73
2021/03/16 05:10:47;;;;;;;107.97;51.33;;;;;;;2.34;59.98;98294.13;250290;1153;114846;-75
2021/03/16 05:16:09;;;;;;;110.63;53.68;;;;;;;2.36;60.23;98300.16;251738;1153;115624;-76
2021/03/16 05:21:30;;;;;;;113.53;53.80;;;;;;;2.34;60.15;98302.01;251973;1147;115009;-74
2021/03/16 05:26:51;;;;;;;121.00;57.05;;;;;;;2.26;59.99;98311.95;251978;1153;115150;-73
2021/03/16 05:32:12;;;;;;;123.83;57.85;;;;;;;2.28;60.47;98311.90;251951;1146;115286;-74
2021/03/16 05:37:33;;;;;;;106.80;54.93;;;;;;;2.30;60.25;98320.55;251577;1153;115135;-74
2021/03/16 05:42:56;;;;;;;123.03;57.97;;;;;;;2.30;60.40;98318.77;251962;1146;115030;-74
2021/03/16 05:48:18;;;;;;;127.58;58.88;;;;;;;2.34;60.46;98325.64;252026;1145;115318;-78
2021/03/16 05:53:39;;;;;;;121.00;57.70;;;;;;;2.33;60.41;98333.56;251028;1146;117839;-78
2021/03/16 05:59:03;;;;;;;119.15;60.00;;;;;;;2.30;60.36;98333.67;251968;1146;115943;-78
2021/03/16 06:04:24;;;;;;;126.30;62.03;;;;;;;2.28;60.53;98344.25;250285;1153;115187;-80
2021/03/16 06:09:45;;;;;;;145.38;67.15;;;;;;;2.34;60.71;98340.51;251219;1147;115250;-79
2021/03/16 06:15:24;;;;;;;144.93;66.55;;;;;;;2.41;60.72;98344.59;250574;1153;115035;-79
2021/03/16 06:20:45;;;;;;;139.85;65.78;;;;;;;2.45;60.78;98350.61;252288;1146;114835;-78
2021/03/16 06:26:12;;;;;;;143.05;69.35;;;;;;;2.51;60.57;98355.58;252256;1146;114935;-78
2021/03/16 06:31:34;;;;;;;156.10;68.80;;;;;;;2.56;60.61;98361.52;250757;1146;114908;-77
2021/03/16 06:36:59;;;;;;;148.87;73.80;;;;;;;2.66;61.16;98362.00;250823;1153;115003;-78
2021/03/16 06:42:26;;;;;;;156.37;75.60;;;;;;;2.81;60.93;98375.34;247847;1146;115242;-78
2021/03/16 06:47:47;;;;;;;151.65;71.80;;;;;;;2.91;60.92;98372.34;249811;1153;115369;-74
2021/03/16 06:53:14;;;;;;;160.87;77.03;;;;;;;3.04;61.07;98387.53;252057;1146;115092;-73
2021/03/16 06:58:36;;;;;;;151.50;73.67;;;;;;;3.19;60.96;98387.80;250966;1153;115138;-74
2021/03/16 07:03:58;;;;;;;156.55;75.45;;;;;;;3.26;60.91;98392.75;249284;1147;115063;-75
2021/03/16 07:09:20;;;;;;;156.73;77.23;;;;;;;3.38;60.79;98393.98;251959;1153;114876;-74
2021/03/16 07:14:42;;;;;;;159.05;77.90;;;;;;;3.48;60.88;98392.66;251963;1145;115338;-74
2021/03/16 07:20:07;;;;;;;157.10;76.80;;;;;;;3.63;61.01;98398.16;251290;1153;115059;-71
2021/03/16 07:25:35;;;;;;;152.78;76.08;;;;;;;3.76;60.58;98399.33;250451;1153;115232;-75
2021/03/16 07:31:00;;;;;;;144.43;70.20;;;;;;;3.92;60.39;98408.25;250632;1147;115691;-75
2021/03/16 07:36:24;;;;;;;148.87;72.43;;;;;;;4.06;60.54;98412.88;250895;1148;115107;-75
2021/03/16 07:41:47;;;;;;;159.13;76.20;;;;;;;4.21;60.62;98422.73;251873;1147;115176;-75
2021/03/16 07:47:11;;;;;;;150.10;76.73;;;;;;;4.38;60.25;98414.04;250011;1148;115464;-75
2021/03/16 07:52:45;;;;;;;167.30;80.10;;;;;;;4.58;60.23;98418.34;250357;1146;114775;-76
2021/03/16 07:58:11;;;;;;;142.20;70.60;;;;;;;4.73;60.18;98422.89;250622;1148;115308;-73
2021/03/16 08:03:51;;;;;;;151.25;73.15;;;;;;;4.92;59.82;98424.62;250348;1145;115278;-74
2021/03/16 08:09:23;;;;;;;141.97;75.17;;;;;;;5.13;59.69;98425.33;249332;1147;115771;-75
2021/03/16 08:14:45;;;;;;;143.68;68.13;;;;;;;5.37;59.54;98423.27;249240;1146;115445;-74
2021/03/16 08:20:07;;;;;;;133.50;68.77;;;;;;;5.49;59.28;98425.27;250613;1153;115117;-75
2021/03/16 08:25:30;;;;;;;130.88;68.00;;;;;;;5.60;59.20;98419.43;249178;1146;114588;-73
2021/03/16 08:30:53;;;;;;;130.63;68.15;;;;;;;5.74;59.07;98424.88;249766;1151;115748;-78
2021/03/16 08:36:15;;;;;;;133.23;70.23;;;;;;;5.95;59.76;98422.06;251521;1147;115412;-74
2021/03/16 08:41:37;;;;;;;132.75;67.15;;;;;;;6.21;59.66;98425.93;249433;1146;115129;-76
2021/03/16 08:47:10;;;;;;;128.03;62.17;;;;;;;6.37;59.27;98425.02;251251;1146;115100;-75
2021/03/16 08:52:31;;;;;;;96.27;48.77;;;;;;;6.50;59.06;98427.84;251565;1153;115435;-79
2021/03/16 08:57:54;;;;;;;90.10;44.35;;;;;;;6.55;58.51;98436.35;251600;1147;114958;-77
2021/03/16 09:03:15;;;;;;;87.73;43.93;;;;;;;6.57;58.84;98438.93;250711;1146;115242;-78
2021/03/16 09:08:36;;;;;;;87.48;43.20;;;;;;;6.72;59.07;98439.85;251705;1153;115001;-77
2021/03/16 09:14:11;;;;;;;84.87;45.47;;;;;;;6.90;58.79;98432.70;250405;1148;114888;-76
2021/03/16 09:19:32;;;;;;;71.77;36.00;;;;;;;7.00;58.59;98433.88;250123;1153;115336;-77
2021/03/16 09:24:55;;;;;;;64.97;34.90;;;;;;;7.15;58.67;98434.78;250479;1146;114940;-76
2021/03/16 09:30:18;;;;;;;56.00;30.65;;;;;;;7.27;58.71;98432.28;248931;1147;114894;-77
2021/03/16 09:35:39;;;;;;;52.13;29.17;;;;;;;7.39;58.55;98438.63;250875;1146;115124;-77
2021/03/16 09:41:06;;;;;;;49.33;26.90;;;;;;;7.43;58.31;98450.74;249227;1146;114729;-74
2021/03/16 09:46:14;;;;;;;37.85;22.58;;;;;;;7.44;58.58;98449.82;249381;1146;114815;-77
2021/03/16 09:51:19;;;;;;;29.60;18.43;;;;;;;7.43;58.25;98439.31;248795;1153;114945;-76
2021/03/16 09:56:33;;;;;;;28.75;18.28;;;;;;;7.49;58.02;98446.89;251751;1146;115738;-78
2021/03/16 10:01:39;;;;;;;29.38;18.85;;;;;;;7.52;57.63;98447.56;251433;1153;115093;-75
2021/03/16 10:06:43;;;;;;;30.40;19.03;;;;;;;7.59;57.83;98442.76;251766;1146;114805;-77
2021/03/16 10:11:46;;;;;;;35.28;20.33;;;;;;;7.71;58.03;98441.16;252011;1153;115761;-77
2021/03/16 10:16:53;;;;;;;32.43;19.93;;;;;;;7.91;58.14;98439.96;251062;1146;114738;-76
2021/03/16 10:21:56;;;;;;;26.63;17.27;;;;;;;8.08;58.35;98450.38;251532;1148;114714;-80
2021/03/16 10:27:00;;;;;;;25.33;17.07;;;;;;;8.24;57.46;98439.69;252034;1147;114555;-79
2021/03/16 10:32:03;;;;;;;28.15;18.03;;;;;;;8.39;57.91;98440.55;251468;1153;116094;-77
2021/03/16 10:37:05;;;;;;;27.40;17.80;;;;;;;8.41;57.12;98452.77;251096;1147;114840;-79
2021/03/16 10:42:08;;;;;;;29.78;19.80;;;;;;;8.33;56.70;98438.28;251744;1152;114959;-78
2021/03/16 10:47:11;;;;;;;28.50;18.40;;;;;;;8.32;56.87;98439.20;250118;1146;115360;-79
2021/03/16 10:52:14;;;;;;;33.23;18.68;;;;;;;8.27;56.16;98443.00;251518;1146;114991;-78
2021/03/16 10:57:17;;;;;;;43.27;25.27;;;;;;;8.18;56.38;98440.91;248221;1146;115349;-75
2021/03/16 11:02:19;;;;;;;45.93;26.63;;;;;;;8.17;56.45;98449.82;251689;1147;115047;-77
2021/03/16 11:07:22;;;;;;;49.57;29.63;;;;;;;8.14;57.04;98454.45;251698;1146;114818;-78
2021/03/16 11:12:24;;;;;;;58.77;32.40;;;;;;;8.03;56.64;98458.62;248267;1147;114784;-76
2021/03/16 11:17:26;;;;;;;62.10;34.70;;;;;;;7.83;57.27;98467.77;251424;1146;115055;-78
2021/03/16 11:22:29;;;;;;;45.35;25.28;;;;;;;7.59;56.65;98474.53;250636;1153;115218;-78
2021/03/16 11:27:31;;;;;;;23.33;12.98;;;;;;;7.18;57.63;98480.44;252014;1146;114795;-79
2021/03/16 11:32:35;;;;;;;11.63;7.40;;;;;;;6.81;58.02;98481.66;250577;1153;114948;-77
2021/03/16 11:37:56;;;;;;;7.70;5.27;;;;;;;6.50;58.32;98471.92;250414;1146;114772;-77
2021/03/16 11:43:19;;;;;;;7.20;4.78;;;;;;;6.34;58.69;98467.45;249887;1153;115031;-79
2021/03/16 11:48:39;;;;;;;9.03;5.35;;;;;;;6.25;58.95;98456.53;249209;1146;114337;-77
2021/03/16 11:54:01;;;;;;;10.08;5.63;;;;;;;6.12;59.26;98453.71;252084;1153;115575;-76
2021/03/16 11:59:22;;;;;;;8.93;5.40;;;;;;;6.12;59.86;98451.07;251394;1146;115546;-80
2021/03/16 12:04:43;;;;;;;10.00;6.25;;;;;;;6.16;60.86;98448.17;251589;1146;114205;-78
2021/03/16 12:10:06;;;;;;;8.88;5.05;;;;;;;6.27;60.72;98455.52;250087;1153;115412;-73
2021/03/16 12:15:27;;;;;;;8.53;4.78;;;;;;;6.45;60.61;98453.66;251931;1148;115143;-72
2021/03/16 12:20:50;;;;;;;6.30;3.93;;;;;;;6.59;60.82;98450.28;251749;1147;114875;-74
2021/03/16 12:26:11;;;;;;;7.70;4.00;;;;;;;6.74;60.78;98462.63;249776;1146;114689;-72
2021/03/16 12:31:32;;;;;;;10.53;5.75;;;;;;;6.73;59.99;98454.80;251130;1146;114540;-74
2021/03/16 12:36:53;;;;;;;16.03;9.73;;;;;;;6.61;60.56;98458.96;251772;1146;115332;-74
2021/03/16 12:42:14;;;;;;;23.80;13.80;;;;;;;6.51;60.36;98453.33;251614;1145;115057;-74
2021/03/16 12:47:36;;;;;;;24.47;15.10;;;;;;;6.46;60.31;98454.53;251948;1153;115317;-74
2021/03/16 12:52:57;;;;;;;23.50;14.23;;;;;;;6.43;60.97;98457.34;251880;1153;115881;-72
2021/03/16 12:58:18;;;;;;;27.45;15.10;;;;;;;6.39;60.85;98449.58;252015;1146;115176;-75
2021/03/16 13:03:39;;;;;;;18.57;11.53;;;;;;;6.52;61.85;98456.81;251017;1147;114821;-72
2021/03/16 13:09:00;;;;;;;18.75;12.00;;;;;;;6.77;61.70;98453.69;251938;1146;115131;-73
2021/03/16 13:14:21;;;;;;;20.75;11.90;;;;;;;7.23;61.55;98453.70;251972;1146;115200;-73
2021/03/16 13:19:43;;;;;;;14.45;8.65;;;;;;;7.89;61.65;98455.11;251889;1146;115129;-73
2021/03/16 14:47:31;;;;;;;20.70;10.45;;;;;;;8.19;58.52;98458.55;251519;1141;103394;-66
2021/03/16 14:52:52;;;;;;;21.10;11.87;;;;;;;8.17;58.54;98463.07;252161;1144;114806;-63
2021/03/16 14:58:14;;;;;;;16.40;10.23;;;;;;;8.16;58.17;98463.18;251896;1144;116039;-66
2021/03/16 15:03:36;;;;;;;18.07;10.23;;;;;;;8.10;57.67;98466.20;251905;1144;114955;-64
2021/03/16 15:08:57;;;;;;;16.83;10.10;;;;;;;8.09;57.64;98473.30;251988;1145;114472;-64
2021/03/16 15:14:18;;;;;;;15.25;10.05;;;;;;;8.04;58.02;98472.72;250552;1144;115382;-65
2021/03/16 15:19:41;;;;;;;16.87;9.73;;;;;;;8.01;57.66;98473.75;251913;1144;115388;-65
2021/03/16 15:25:05;;;;;;;18.27;9.87;;;;;;;8.06;57.44;98473.48;251891;1144;114435;-65
2021/03/16 15:30:26;;;;;;;16.30;10.43;;;;;;;8.10;57.58;98474.15;252228;1150;115693;-64
2021/03/16 15:35:47;;;;;;;20.78;10.80;;;;;;;8.13;57.41;98485.41;251721;1144;115074;-67
2021/03/16 15:41:08;;;;;;;16.80;10.48;;;;;;;8.15;57.44;98490.61;252175;1144;115871;-63
2021/03/16 15:46:29;;;;;;;15.88;10.25;;;;;;;8.16;57.27;98481.73;251964;1146;114977;-63
2021/03/16 15:51:52;;;;;;;21.30;10.65;;;;;;;8.16;57.36;98489.69;251969;1152;114937;-63
2021/03/16 15:57:13;;;;;;;23.53;11.07;;;;;;;8.13;57.33;98496.02;251947;1144;114661;-62
2021/03/16 16:02:33;;;;;;;22.60;11.78;;;;;;;8.14;57.80;98504.81;251907;1151;114495;-63
2021/03/16 16:07:54;;;;;;;21.98;11.53;;;;;;;8.10;57.48;98506.80;251926;1145;114805;-64
2021/03/16 16:13:15;;;;;;;18.15;11.45;;;;;;;8.05;58.17;98511.54;251918;1146;114905;-68
2021/03/16 16:18:36;;;;;;;20.93;12.10;;;;;;;7.96;58.13;98514.73;252147;1145;115690;-66
2021/03/16 16:23:58;;;;;;;19.13;12.35;;;;;;;7.91;57.93;98522.09;251961;1144;114871;-65
2021/03/16 16:29:19;;;;;;;23.33;13.20;;;;;;;7.90;57.76;98530.98;251906;1144;115710;-64
2021/03/16 16:34:40;;;;;;;28.00;14.93;;;;;;;7.83;57.81;98536.64;251940;1152;115309;-64
2021/03/16 16:40:03;;;;;;;26.10;14.83;;;;;;;7.76;58.24;98556.48;251915;1144;114908;-65
2021/03/16 16:45:24;;;;;;;20.45;11.60;;;;;;;7.69;58.00;98584.27;251601;1151;115015;-64
2021/03/16 16:50:45;;;;;;;17.28;10.13;;;;;;;7.46;58.10;98574.14;251637;1144;114903;-64
2021/03/16 16:56:07;;;;;;;18.05;11.83;;;;;;;7.26;57.89;98585.85;251950;1146;114840;-67
2021/03/16 17:01:28;;;;;;;13.63;9.60;;;;;;;7.00;58.24;98597.89;252102;1151;114727;-67
2021/03/16 17:06:49;;;;;;;15.93;10.90;;;;;;;6.76;58.70;98606.22;252145;1144;114340;-67
2021/03/16 17:12:10;;;;;;;19.50;12.50;;;;;;;6.71;59.78;98616.16;252047;1144;114914;-67
2021/03/16 17:17:32;;;;;;;24.03;13.47;;;;;;;6.71;59.77;98615.31;251721;1144;115567;-67
2021/03/16 17:22:53;;;;;;;23.05;15.63;;;;;;;6.75;60.00;98617.70;252124;1144;114792;-66
2021/03/16 17:28:14;;;;;;;25.13;16.63;;;;;;;6.77;60.17;98620.28;252234;1144;115434;-67
2021/03/16 17:33:35;;;;;;;24.50;16.43;;;;;;;6.77;60.08;98631.72;252210;1150;114894;-68
2021/03/16 17:38:56;;;;;;;27.15;17.53;;;;;;;6.73;60.13;98632.82;252121;1144;114947;-68
2021/03/16 17:44:17;;;;;;;26.23;17.27;;;;;;;6.70;60.31;98632.98;250533;1152;115006;-68
2021/03/16 17:49:37;;;;;;;25.45;16.25;;;;;;;6.67;60.23;98645.51;251767;1144;114621;-68
2021/03/16 17:54:58;;;;;;;24.03;16.38;;;;;;;6.68;60.04;98639.27;252158;1144;115155;-68
2021/03/16 18:00:19;;;;;;;25.25;17.00;;;;;;;6.61;60.42;98649.31;251893;1146;114654;-69
2021/03/16 18:05:40;;;;;;;30.67;20.33;;;;;;;6.53;60.62;98651.52;251719;1152;115194;-69
2021/03/16 18:11:01;;;;;;;32.83;20.68;;;;;;;6.46;61.21;98650.13;252019;1146;114799;-69
2021/03/16 18:16:23;;;;;;;35.40;22.70;;;;;;;6.46;61.04;98645.69;252074;1144;115152;-67
2021/03/16 18:21:44;;;;;;;36.63;22.53;;;;;;;6.49;61.22;98647.30;251902;1144;114887;-67
2021/03/16 18:27:06;;;;;;;33.43;21.20;;;;;;;6.50;61.41;98662.24;252049;1151;115391;-66
2021/03/16 18:32:26;;;;;;;33.08;22.85;;;;;;;6.55;61.38;98660.20;249266;1145;114819;-68
2021/03/16 18:37:48;;;;;;;36.90;21.85;;;;;;;6.59;60.99;98651.20;251896;1144;114662;-66
2021/03/16 18:43:11;;;;;;;31.00;20.67;;;;;;;6.59;61.78;98661.78;251925;1146;114750;-65
2021/03/16 18:48:32;;;;;;;37.18;23.10;;;;;;;6.53;61.92;98662.94;251828;1145;114630;-71
2021/03/16 18:53:55;;;;;;;39.25;22.50;;;;;;;6.51;61.29;98659.51;252051;1144;115003;-72
2021/03/16 18:59:18;;;;;;;39.20;22.87;;;;;;;6.45;61.03;98659.81;252081;1146;114869;-72
2021/03/16 19:05:03;;;;;;;34.55;22.95;;;;;;;6.36;61.78;98653.23;248346;1148;115195;-75
2021/03/16 19:10:24;;;;;;;37.48;24.93;;;;;;;6.29;61.21;98654.48;252028;1146;115952;-72
2021/03/16 19:15:52;;;;;;;42.85;25.43;;;;;;;6.27;62.14;98664.26;252002;1152;115160;-72
2021/03/16 19:21:20;;;;;;;39.55;23.95;;;;;;;6.28;61.40;98667.75;250900;1146;115354;-73
2021/03/16 19:26:43;;;;;;;41.70;25.18;;;;;;;6.33;61.60;98671.88;251953;1146;114802;-73
2021/03/16 19:32:15;;;;;;;40.18;23.08;;;;;;;6.36;62.33;98671.73;251862;1145;115273;-74
2021/03/16 19:37:47;;;;;;;;;;;;;;;;;;;;;
2021/03/16 19:43:10;;;;;;;35.75;22.93;;;;;;;6.44;61.44;98673.97;252063;1144;115253;-72
2021/03/16 19:48:48;;;;;;;36.30;24.13;;;;;;;6.44;61.72;98676.62;251882;1152;114696;-71
2021/03/16 19:54:28;;;;;;;31.70;20.93;;;;;;;6.41;61.37;98679.41;251908;1144;114830;-72
2021/03/16 19:59:52;;;;;;;34.45;21.80;;;;;;;6.36;61.80;98684.09;251889;1144;115171;-72
2021/03/16 20:05:15;;;;;;;36.03;21.90;;;;;;;6.32;62.03;98683.39;251872;1144;114670;-72
2021/03/16 20:10:39;;;;;;;38.10;23.03;;;;;;;6.26;61.36;98691.63;251818;1144;114976;-73
2021/03/16 20:16:00;;;;;;;35.85;22.85;;;;;;;6.20;62.22;98686.64;251736;1146;114635;-65
2021/03/16 20:21:25;;;;;;;39.83;24.20;;;;;;;6.25;62.32;98694.33;251858;1144;114871;-65
2021/03/16 20:26:47;;;;;;;32.93;21.53;;;;;;;6.30;62.22;98692.33;251922;1152;115710;-65
2021/03/16 20:32:08;;;;;;;35.15;22.48;;;;;;;6.33;61.62;98693.02;251869;1146;115200;-67
2021/03/16 20:37:29;;;;;;;39.97;24.03;;;;;;;6.32;61.12;98696.61;251986;1144;115205;-67
2021/03/16 20:42:50;;;;;;;37.65;22.75;;;;;;;6.25;62.03;98699.61;252073;1144;114498;-67
2021/03/16 20:48:12;;;;;;;34.10;20.52;;;;;;;6.26;62.03;98696.06;251954;1144;114589;-67
2021/03/16 20:53:33;;;;;;;38.05;22.63;;;;;;;6.21;61.48;98703.34;252023;1144;114741;-67
2021/03/16 20:58:54;;;;;;;36.93;23.18;;;;;;;6.18;61.76;98714.06;251850;1146;115256;-67
2021/03/16 21:04:15;;;;;;;35.07;22.70;;;;;;;6.19;61.84;98702.59;252065;1144;114597;-67
2021/03/16 21:09:36;;;;;;;34.30;21.88;;;;;;;6.13;60.90;98703.73;251902;1152;114911;-67
2021/03/16 21:14:57;;;;;;;35.33;21.05;;;;;;;6.14;61.69;98697.51;251738;1145;114848;-64
2021/03/16 21:20:25;;;;;;;34.73;22.77;;;;;;;6.13;61.57;98701.09;251924;1152;114839;-65
2021/03/16 21:25:47;;;;;;;37.23;22.03;;;;;;;6.10;61.35;98702.09;251956;1146;114669;-66
2021/03/16 21:31:08;;;;;;;39.45;23.40;;;;;;;6.07;61.65;98707.52;251999;1152;114922;-68
2021/03/16 21:36:30;;;;;;;45.18;25.55;;;;;;;5.99;61.51;98714.13;251702;1146;114582;-69
2021/03/16 21:41:51;;;;;;;40.83;25.05;;;;;;;6.01;61.20;98712.25;252086;1151;115190;-72
2021/03/16 21:47:12;;;;;;;44.13;26.57;;;;;;;6.06;62.12;98712.89;251990;1144;114896;-69
2021/03/16 21:52:33;;;;;;;44.73;26.57;;;;;;;6.10;61.52;98717.09;251927;1153;115017;-68
2021/03/16 21:58:06;;;;;;;44.23;26.97;;;;;;;6.16;62.02;98716.80;251982;1144;115636;-69
2021/03/16 22:03:27;;;;;;;45.88;27.00;;;;;;;6.17;62.04;98718.50;252026;1144;115138;-68
2021/03/16 22:08:48;;;;;;;44.93;27.60;;;;;;;6.17;61.37;98713.21;251915;1145;116165;-69
2021/03/16 22:14:09;;;;;;;47.88;28.18;;;;;;;6.13;62.06;98717.80;251869;1144;115105;-67
2021/03/16 22:19:30;;;;;;;48.13;29.45;;;;;;;6.11;61.35;98732.88;251029;1151;114740;-74
2021/03/16 22:24:52;;;;;;;48.45;29.10;;;;;;;6.04;61.31;98720.88;251944;1144;116626;-68
2021/03/16 22:30:14;;;;;;;51.25;30.33;;;;;;;6.00;62.04;98723.75;252173;1152;114449;-71
2021/03/16 22:35:35;;;;;;;52.10;31.20;;;;;;;5.96;61.60;98714.27;252244;1144;114676;-72
2021/03/16 22:40:56;;;;;;;49.35;31.23;;;;;;;5.88;61.86;98718.11;252468;1151;114367;-71
2021/03/16 22:46:17;;;;;;;50.28;31.03;;;;;;;5.84;61.59;98724.47;252688;1144;114581;-72
2021/03/16 22:51:41;;;;;;;58.95;35.03;;;;;;;5.80;62.25;98716.75;252497;1151;114368;-72
2021/03/16 22:57:05;;;;;;;58.40;33.25;;;;;;;5.82;61.97;98721.04;252733;1143;116653;-71
2021/03/16 23:02:27;;;;;;;56.45;33.33;;;;;;;5.88;62.23;98730.46;252774;1151;114301;-68
2021/03/16 23:07:49;;;;;;;55.85;35.23;;;;;;;5.90;62.61;98724.16;252719;1144;115020;-72
2021/03/16 23:13:10;;;;;;;58.20;35.08;;;;;;;5.88;62.51;98731.31;252418;1151;115292;-66
2021/03/16 23:18:31;;;;;;;56.73;35.43;;;;;;;5.90;62.02;98721.52;252310;1144;114693;-66
2021/03/16 23:23:52;;;;;;;52.15;33.55;;;;;;;5.91;62.33;98725.89;252561;1150;114097;-70
2021/03/16 23:29:13;;;;;;;53.68;32.58;;;;;;;5.87;62.11;98726.09;252640;1144;115015;-69
2021/03/16 23:34:35;;;;;;;53.20;33.93;;;;;;;5.81;61.95;98719.34;252625;1150;114756;-67
2021/03/16 23:39:56;;;;;;;51.25;32.85;;;;;;;5.78;62.01;98719.48;252694;1144;115290;-67
2021/03/16 23:45:18;;;;;;;52.43;32.28;;;;;;;5.75;62.50;98718.77;252604;1150;115244;-67
2021/03/16 23:50:45;;;;;;;46.85;30.98;;;;;;;5.72;61.89;98725.05;252512;1151;114687;-68
2021/03/16 23:56:08;;;;;;;46.50;30.83;;;;;;;5.69;62.59;98718.12;252732;1144;114820;-64
